sensor_id;sensor_type;location;lat;lon;timestamp;pressure;altitude;pressure_sealevel;temperature;humidity
9281;BME280;4679;47.966;7.958;2023-04-20T05:25:04;96701.19;;;5.75;84.17
9281;BME280;4679;47.966;7.958;2023-04-20T05:27:06;96700.03;;;5.71;84.43
9281;BME280;4679;47.966;7.958;2023-04-20T05:29:08;96702.31;;;5.67;84.04
9281;BME280;4679;47.966;7.958;2023-04-20T05:31:10;96703.91;;;5.68;84.71
9281;BME280;4679;47.966;7.958;2023-04-20T05:33:11;96708.06;;;5.76;84.71
9281;BME280;4679;47.966;7.958;2023-04-20T05:35:13;96695.72;;;5.76;84.66
9281;BME280;4679;47.966;7.958;2023-04-20T05:37:15;96696.16;;;5.73;84.24
9281;BME280;4679;47.966;7.958;2023-04-20T05:39:17;96699.44;;;5.69;84.56
9281;BME280;4679;47.966;7.958;2023-04-20T05:41:20;96704.72;;;5.69;84.15
9281;BME280;4679;47.966;7.958;2023-04-20T05:43:26;96699.81;;;5.72;84.66
9281;BME280;4679;47.966;7.958;2023-04-20T05:45:27;96699.00;;;5.72;84.45
9281;BME280;4679;47.966;7.958;2023-04-20T05:47:29;96698.78;;;5.73;84.53
9281;BME280;4679;47.966;7.958;2023-04-20T05:49:30;96704.63;;;5.75;84.77
9281;BME280;4679;47.966;7.958;2023-04-20T05:51:32;96703.63;;;5.76;84.85
9281;BME280;4679;47.966;7.958;2023-04-20T05:53:34;96703.97;;;5.80;84.74
9281;BME280;4679;47.966;7.958;2023-04-20T05:55:35;96702.47;;;5.84;83.98
9281;BME280;4679;47.966;7.958;2023-04-20T05:57:38;96706.50;;;5.86;83.87
9281;BME280;4679;47.966;7.958;2023-04-20T05:59:42;96699.22;;;5.88;84.61
9281;BME280;4679;47.966;7.958;2023-04-20T06:01:44;96697.97;;;5.91;84.10
9281;BME280;4679;47.966;7.958;2023-04-20T06:03:45;96691.25;;;5.95;84.24
9281;BME280;4679;47.966;7.958;2023-04-20T06:05:48;96695.59;;;6.01;84.27
9281;BME280;4679;47.966;7.958;2023-04-20T06:07:50;96699.38;;;6.05;84.72
9281;BME280;4679;47.966;7.958;2023-04-20T06:09:52;96696.91;;;6.10;84.08
9281;BME280;4679;47.966;7.958;2023-04-20T06:11:53;96699.28;;;6.12;83.45
9281;BME280;4679;47.966;7.958;2023-04-20T06:13:57;96703.06;;;6.16;83.83
9281;BME280;4679;47.966;7.958;2023-04-20T06:15:58;96704.47;;;6.18;83.28
9281;BME280;4679;47.966;7.958;2023-04-20T06:18:00;96700.22;;;6.17;84.06
9281;BME280;4679;47.966;7.958;2023-04-20T06:20:02;96696.34;;;6.20;83.58
9281;BME280;4679;47.966;7.958;2023-04-20T06:22:05;96691.66;;;6.22;83.98
9281;BME280;4679;47.966;7.958;2023-04-20T06:24:07;96693.47;;;6.21;84.41
9281;BME280;4679;47.966;7.958;2023-04-20T06:26:09;96681.56;;;6.19;83.35
9281;BME280;4679;47.966;7.958;2023-04-20T06:28:11;96686.81;;;6.19;83.55
9281;BME280;4679;47.966;7.958;2023-04-20T06:30:14;96685.78;;;6.20;83.31
9281;BME280;4679;47.966;7.958;2023-04-20T06:32:16;96686.59;;;6.20;83.81
9281;BME280;4679;47.966;7.958;2023-04-20T06:34:18;96693.91;;;6.18;83.65
9281;BME280;4679;47.966;7.958;2023-04-20T06:36:20;96691.06;;;6.20;84.34
9281;BME280;4679;47.966;7.958;2023-04-20T06:38:21;96696.47;;;6.25;83.67
9281;BME280;4679;47.966;7.958;2023-04-20T06:40:25;96697.38;;;6.30;84.21
9281;BME280;4679;47.966;7.958;2023-04-20T06:42:28;96694.53;;;6.32;83.57
9281;BME280;4679;47.966;7.958;2023-04-20T06:44:30;96697.50;;;6.35;84.12
9281;BME280;4679;47.966;7.958;2023-04-20T06:46:33;96699.13;;;6.37;84.08
9281;BME280;4679;47.966;7.958;2023-04-20T06:48:34;96702.91;;;6.41;83.33
9281;BME280;4679;47.966;7.958;2023-04-20T06:50:36;96692.91;;;6.43;84.32
9281;BME280;4679;47.966;7.958;2023-04-20T06:52:39;96692.69;;;6.44;84.16
9281;BME280;4679;47.966;7.958;2023-04-20T06:54:40;96693.72;;;6.43;83.90
9281;BME280;4679;47.966;7.958;2023-04-20T06:56:42;96699.34;;;6.47;83.70
9281;BME280;4679;47.966;7.958;2023-04-20T06:58:44;96697.28;;;6.49;83.58
9281;BME280;4679;47.966;7.958;2023-04-20T07:00:46;96697.88;;;6.51;83.09
9281;BME280;4679;47.966;7.958;2023-04-20T07:02:49;96703.13;;;6.51;83.31
9281;BME280;4679;47.966;7.958;2023-04-20T07:04:51;96703.59;;;6.48;83.92
9281;BME280;4679;47.966;7.958;2023-04-20T07:06:53;96698.53;;;6.46;83.44
9281;BME280;4679;47.966;7.958;2023-04-20T07:08:54;96688.94;;;6.52;83.13
9281;BME280;4679;47.966;7.958;2023-04-20T07:10:56;96693.84;;;6.60;83.48
9281;BME280;4679;47.966;7.958;2023-04-20T07:12:58;96687.69;;;6.66;83.10
9281;BME280;4679;47.966;7.958;2023-04-20T07:15:01;96689.41;;;6.72;83.86
9281;BME280;4679;47.966;7.958;2023-04-20T07:17:03;96693.53;;;6.68;83.21
9281;BME280;4679;47.966;7.958;2023-04-20T07:19:06;96691.78;;;6.74;83.45
9281;BME280;4679;47.966;7.958;2023-04-20T07:21:07;96695.34;;;6.79;83.84
9281;BME280;4679;47.966;7.958;2023-04-20T07:23:09;96689.63;;;6.82;83.03
9281;BME280;4679;47.966;7.958;2023-04-20T07:25:11;96691.25;;;6.83;83.28
9281;BME280;4679;47.966;7.958;2023-04-20T07:27:12;96691.59;;;6.87;83.61
9281;BME280;4679;47.966;7.958;2023-04-20T07:29:14;96686.63;;;6.90;83.89
9281;BME280;4679;47.966;7.958;2023-04-20T07:31:16;96694.78;;;7.00;82.69
9281;BME280;4679;47.966;7.958;2023-04-20T07:33:18;96684.22;;;7.00;82.85
9281;BME280;4679;47.966;7.958;2023-04-20T07:35:22;96686.97;;;7.05;82.53
9281;BME280;4679;47.966;7.958;2023-04-20T07:37:23;96691.66;;;7.03;82.80
9281;BME280;4679;47.966;7.958;2023-04-20T07:39:25;96679.03;;;7.05;82.40
9281;BME280;4679;47.966;7.958;2023-04-20T07:41:29;96683.19;;;7.13;82.06
9281;BME280;4679;47.966;7.958;2023-04-20T07:43:31;96684.31;;;7.17;82.61
9281;BME280;4679;47.966;7.958;2023-04-20T07:45:32;96683.25;;;7.18;83.23
9281;BME280;4679;47.966;7.958;2023-04-20T07:47:34;96675.59;;;7.17;82.72
9281;BME280;4679;47.966;7.958;2023-04-20T07:49:36;96674.47;;;7.13;82.12
9281;BME280;4679;47.966;7.958;2023-04-20T07:51:41;96670.91;;;7.07;83.20
9281;BME280;4679;47.966;7.958;2023-04-20T07:53:43;96677.22;;;7.06;82.38
9281;BME280;4679;47.966;7.958;2023-04-20T07:55:44;96678.81;;;7.07;82.19
9281;BME280;4679;47.966;7.958;2023-04-20T07:57:46;96678.59;;;7.09;82.19
9281;BME280;4679;47.966;7.958;2023-04-20T07:59:48;96687.75;;;7.18;81.96
9281;BME280;4679;47.966;7.958;2023-04-20T08:01:49;96680.28;;;7.26;82.51
9281;BME280;4679;47.966;7.958;2023-04-20T08:03:51;96682.78;;;7.33;81.55
9281;BME280;4679;47.966;7.958;2023-04-20T08:05:54;96678.56;;;7.32;82.11
9281;BME280;4679;47.966;7.958;2023-04-20T08:07:57;96680.16;;;7.33;82.32
9281;BME280;4679;47.966;7.958;2023-04-20T08:09:59;96681.03;;;7.38;82.48
9281;BME280;4679;47.966;7.958;2023-04-20T08:12:02;96668.53;;;7.46;81.03
9281;BME280;4679;47.966;7.958;2023-04-20T08:14:04;96669.41;;;7.51;81.74
9281;BME280;4679;47.966;7.958;2023-04-20T08:16:06;96663.31;;;7.51;81.74
9281;BME280;4679;47.966;7.958;2023-04-20T08:18:07;96658.28;;;7.49;81.58
9281;BME280;4679;47.966;7.958;2023-04-20T08:20:10;96657.47;;;7.49;81.56
9281;BME280;4679;47.966;7.958;2023-04-20T08:22:12;96654.84;;;7.49;81.14
9281;BME280;4679;47.966;7.958;2023-04-20T08:24:15;96653.56;;;7.51;80.62
9281;BME280;4679;47.966;7.958;2023-04-20T08:26:16;96655.84;;;7.59;80.27
9281;BME280;4679;47.966;7.958;2023-04-20T08:28:18;96648.16;;;7.58;80.25
9281;BME280;4679;47.966;7.958;2023-04-20T08:30:20;96656.41;;;7.61;79.90
9281;BME280;4679;47.966;7.958;2023-04-20T08:32:21;96654.81;;;7.60;80.48
9281;BME280;4679;47.966;7.958;2023-04-20T08:34:25;96650.75;;;7.69;79.88
9281;BME280;4679;47.966;7.958;2023-04-20T08:36:27;96651.72;;;7.80;79.83
9281;BME280;4679;47.966;7.958;2023-04-20T08:38:29;96645.41;;;7.81;79.80
9281;BME280;4679;47.966;7.958;2023-04-20T08:40:35;96652.84;;;7.84;79.46
9281;BME280;4679;47.966;7.958;2023-04-20T08:42:37;96661.47;;;7.80;79.12
9281;BME280;4679;47.966;7.958;2023-04-20T08:44:38;96656.13;;;7.74;78.81
9281;BME280;4679;47.966;7.958;2023-04-20T08:46:40;96648.91;;;7.70;78.79
9281;BME280;4679;47.966;7.958;2023-04-20T08:48:45;96652.00;;;7.67;79.09
9281;BME280;4679;47.966;7.958;2023-04-20T08:50:49;96655.00;;;7.70;78.42
9281;BME280;4679;47.966;7.958;2023-04-20T08:52:51;96658.34;;;7.66;78.49
9281;BME280;4679;47.966;7.958;2023-04-20T08:54:52;96660.00;;;7.55;78.47
9281;BME280;4679;47.966;7.958;2023-04-20T08:56:55;96656.53;;;7.55;77.55
9281;BME280;4679;47.966;7.958;2023-04-20T08:58:59;96667.09;;;7.55;77.66
9281;BME280;4679;47.966;7.958;2023-04-20T09:01:03;96663.91;;;7.53;77.97
9281;BME280;4679;47.966;7.958;2023-04-20T09:03:04;96665.50;;;7.54;77.40
9281;BME280;4679;47.966;7.958;2023-04-20T09:05:07;96660.00;;;7.55;77.90
9281;BME280;4679;47.966;7.958;2023-04-20T09:07:16;96652.88;;;7.56;77.14
9281;BME280;4679;47.966;7.958;2023-04-20T09:09:19;96655.84;;;7.59;77.43
9281;BME280;4679;47.966;7.958;2023-04-20T09:11:22;96652.19;;;7.60;77.33
9281;BME280;4679;47.966;7.958;2023-04-20T09:13:25;96655.84;;;7.59;77.00
9281;BME280;4679;47.966;7.958;2023-04-20T09:15:28;96656.09;;;7.58;77.03
9281;BME280;4679;47.966;7.958;2023-04-20T09:17:32;96657.47;;;7.60;76.89
9281;BME280;4679;47.966;7.958;2023-04-20T09:19:34;96652.06;;;7.55;76.36
9281;BME280;4679;47.966;7.958;2023-04-20T09:21:35;96648.53;;;7.50;76.52
9281;BME280;4679;47.966;7.958;2023-04-20T09:23:37;96644.28;;;7.49;76.74
9281;BME280;4679;47.966;7.958;2023-04-20T09:25:39;96639.81;;;7.49;75.97
9281;BME280;4679;47.966;7.958;2023-04-20T09:27:42;96646.44;;;7.52;75.89
9281;BME280;4679;47.966;7.958;2023-04-20T09:29:59;96642.13;;;7.46;76.76
9281;BME280;4679;47.966;7.958;2023-04-20T09:32:03;96647.06;;;7.42;75.29
9281;BME280;4679;47.966;7.958;2023-04-20T09:34:06;96644.31;;;7.37;76.23
9281;BME280;4679;47.966;7.958;2023-04-20T09:36:07;96632.16;;;7.36;76.12
9281;BME280;4679;47.966;7.958;2023-04-20T09:38:14;96637.78;;;7.39;75.56
9281;BME280;4679;47.966;7.958;2023-04-20T09:40:17;96634.69;;;7.43;75.52
9281;BME280;4679;47.966;7.958;2023-04-20T09:42:21;96631.00;;;7.44;75.02
9281;BME280;4679;47.966;7.958;2023-04-20T09:44:27;96635.94;;;7.40;74.68
9281;BME280;4679;47.966;7.958;2023-04-20T09:46:31;96629.63;;;7.41;75.68
9281;BME280;4679;47.966;7.958;2023-04-20T09:48:33;96626.06;;;7.47;75.02
9281;BME280;4679;47.966;7.958;2023-04-20T09:50:36;96629.00;;;7.51;74.44
9281;BME280;4679;47.966;7.958;2023-04-20T09:52:38;96624.53;;;7.51;74.77
9281;BME280;4679;47.966;7.958;2023-04-20T09:54:41;96625.09;;;7.53;74.69
9281;BME280;4679;47.966;7.958;2023-04-20T09:56:44;96626.81;;;7.59;74.42
9281;BME280;4679;47.966;7.958;2023-04-20T09:58:46;96625.63;;;7.67;73.89
9281;BME280;4679;47.966;7.958;2023-04-20T10:00:48;96625.16;;;7.70;73.81
9281;BME280;4679;47.966;7.958;2023-04-20T10:02:51;96620.91;;;7.69;73.89
9281;BME280;4679;47.966;7.958;2023-04-20T10:04:53;96628.59;;;7.70;74.03
9281;BME280;4679;47.966;7.958;2023-04-20T10:06:55;96625.72;;;7.72;74.36
9281;BME280;4679;47.966;7.958;2023-04-20T10:09:04;96634.91;;;7.69;73.43
9281;BME280;4679;47.966;7.958;2023-04-20T10:11:06;96629.06;;;7.67;74.22
9281;BME280;4679;47.966;7.958;2023-04-20T10:13:07;96630.19;;;7.71;73.27
9281;BME280;4679;47.966;7.958;2023-04-20T10:15:09;96631.31;;;7.75;73.83
9281;BME280;4679;47.966;7.958;2023-04-20T10:17:11;96639.03;;;7.77;73.46
9281;BME280;4679;47.966;7.958;2023-04-20T10:19:14;96636.03;;;7.73;72.97
9281;BME280;4679;47.966;7.958;2023-04-20T10:21:16;96644.19;;;7.72;73.64
9281;BME280;4679;47.966;7.958;2023-04-20T10:23:20;96636.84;;;7.74;73.02
9281;BME280;4679;47.966;7.958;2023-04-20T10:25:23;96630.53;;;7.75;73.64
9281;BME280;4679;47.966;7.958;2023-04-20T10:27:27;96627.97;;;7.80;72.99
9281;BME280;4679;47.966;7.958;2023-04-20T10:29:31;96625.56;;;7.79;73.05
9281;BME280;4679;47.966;7.958;2023-04-20T10:31:36;96625.56;;;7.79;72.54
9281;BME280;4679;47.966;7.958;2023-04-20T10:33:48;96627.66;;;7.76;72.64
9281;BME280;4679;47.966;7.958;2023-04-20T10:35:52;96627.66;;;7.76;72.61
9281;BME280;4679;47.966;7.958;2023-04-20T10:37:57;96619.50;;;7.78;72.97
9281;BME280;4679;47.966;7.958;2023-04-20T10:39:59;96616.28;;;7.76;72.30
9281;BME280;4679;47.966;7.958;2023-04-20T10:42:01;96621.09;;;7.79;72.97
9281;BME280;4679;47.966;7.958;2023-04-20T10:44:06;96624.50;;;7.80;72.61
9281;BME280;4679;47.966;7.958;2023-04-20T10:46:15;96628.47;;;7.77;72.37
9281;BME280;4679;47.966;7.958;2023-04-20T10:48:17;96629.97;;;7.73;72.23
9281;BME280;4679;47.966;7.958;2023-04-20T10:50:19;96624.34;;;7.69;72.02
9281;BME280;4679;47.966;7.958;2023-04-20T10:52:32;96625.16;;;7.70;71.98
9281;BME280;4679;47.966;7.958;2023-04-20T10:54:36;96623.97;;;7.78;72.08
9281;BME280;4679;47.966;7.958;2023-04-20T10:56:40;96616.59;;;7.80;72.13
9281;BME280;4679;47.966;7.958;2023-04-20T10:58:42;96621.41;;;7.83;71.65
9281;BME280;4679;47.966;7.958;2023-04-20T11:00:43;96628.28;;;7.84;71.61
9281;BME280;4679;47.966;7.958;2023-04-20T11:02:48;96626.91;;;7.81;72.06
9281;BME280;4679;47.966;7.958;2023-04-20T11:04:50;96616.84;;;7.78;71.81
9281;BME280;4679;47.966;7.958;2023-04-20T11:06:52;96628.13;;;7.73;72.38
9281;BME280;4679;47.966;7.958;2023-04-20T11:08:56;96626.34;;;7.62;72.15
9281;BME280;4679;47.966;7.958;2023-04-20T11:10:58;96621.81;;;7.46;73.17
9281;BME280;4679;47.966;7.958;2023-04-20T11:12:59;96617.13;;;7.36;72.95
9281;BME280;4679;47.966;7.958;2023-04-20T11:15:01;96617.94;;;7.37;72.55
9281;BME280;4679;47.966;7.958;2023-04-20T11:17:04;96618.75;;;7.37;73.17
9281;BME280;4679;47.966;7.958;2023-04-20T11:19:06;96620.09;;;7.40;73.01
9281;BME280;4679;47.966;7.958;2023-04-20T11:21:07;96617.56;;;7.45;72.72
9281;BME280;4679;47.966;7.958;2023-04-20T11:23:09;96616.19;;;7.43;74.01
9281;BME280;4679;47.966;7.958;2023-04-20T11:25:12;96621.81;;;7.46;73.11
9281;BME280;4679;47.966;7.958;2023-04-20T11:27:18;96613.41;;;7.49;73.70
9281;BME280;4679;47.966;7.958;2023-04-20T11:29:28;96617.75;;;7.55;73.91
9281;BME280;4679;47.966;7.958;2023-04-20T11:31:30;96614.81;;;7.68;73.67
9281;BME280;4679;47.966;7.958;2023-04-20T11:33:32;96614.75;;;7.80;73.03
9281;BME280;4679;47.966;7.958;2023-04-20T11:35:35;96620.47;;;7.89;73.44
9281;BME280;4679;47.966;7.958;2023-04-20T11:37:45;96610.22;;;7.92;72.96
9281;BME280;4679;47.966;7.958;2023-04-20T11:39:57;96605.81;;;7.98;72.71
9281;BME280;4679;47.966;7.958;2023-04-20T11:42:01;96611.41;;;8.01;73.25
9281;BME280;4679;47.966;7.958;2023-04-20T11:44:04;96599.81;;;8.02;73.26
9281;BME280;4679;47.966;7.958;2023-04-20T11:46:12;96596.38;;;8.19;73.16
9281;BME280;4679;47.966;7.958;2023-04-20T11:48:14;96602.56;;;8.24;72.87
9281;BME280;4679;47.966;7.958;2023-04-20T11:50:17;96600.97;;;8.40;72.47
9281;BME280;4679;47.966;7.958;2023-04-20T11:52:19;96598.63;;;8.43;72.55
9281;BME280;4679;47.966;7.958;2023-04-20T11:54:21;96596.66;;;8.56;72.58
9281;BME280;4679;47.966;7.958;2023-04-20T11:56:23;96588.94;;;8.71;72.04
9281;BME280;4679;47.966;7.958;2023-04-20T11:58:26;96589.16;;;8.86;71.76
9281;BME280;4679;47.966;7.958;2023-04-20T12:00:28;96587.28;;;8.65;72.37
9281;BME280;4679;47.966;7.958;2023-04-20T12:02:30;96585.91;;;8.79;72.30
9281;BME280;4679;47.966;7.958;2023-04-20T12:04:32;96583.56;;;9.04;71.54
9281;BME280;4679;47.966;7.958;2023-04-20T12:06:34;96583.16;;;9.17;71.65
9281;BME280;4679;47.966;7.958;2023-04-20T12:08:35;96582.69;;;9.21;71.59
9281;BME280;4679;47.966;7.958;2023-04-20T12:10:37;96587.31;;;9.30;71.47
9281;BME280;4679;47.966;7.958;2023-04-20T12:12:39;96586.59;;;9.40;71.51
9281;BME280;4679;47.966;7.958;2023-04-20T12:14:42;96583.97;;;9.40;71.19
9281;BME280;4679;47.966;7.958;2023-04-20T12:16:44;96586.38;;;9.41;71.25
9281;BME280;4679;47.966;7.958;2023-04-20T12:18:46;96579.97;;;9.37;71.60
9281;BME280;4679;47.966;7.958;2023-04-20T12:20:47;96581.38;;;9.45;71.37
9281;BME280;4679;47.966;7.958;2023-04-20T12:22:49;96581.47;;;9.55;70.76
9281;BME280;4679;47.966;7.958;2023-04-20T12:24:51;96576.25;;;9.65;71.28
9281;BME280;4679;47.966;7.958;2023-04-20T12:26:53;96586.31;;;9.63;70.61
9281;BME280;4679;47.966;7.958;2023-04-20T12:28:56;96589.25;;;9.40;71.07
9281;BME280;4679;47.966;7.958;2023-04-20T12:30:59;96590.16;;;9.50;71.00
9281;BME280;4679;47.966;7.958;2023-04-20T12:33:01;96583.66;;;9.63;71.19
9281;BME280;4679;47.966;7.958;2023-04-20T12:35:04;96586.41;;;9.73;70.82
9281;BME280;4679;47.966;7.958;2023-04-20T12:37:07;96582.81;;;9.84;70.49
9281;BME280;4679;47.966;7.958;2023-04-20T12:39:09;96578.06;;;9.86;70.36
9281;BME280;4679;47.966;7.958;2023-04-20T12:41:12;96581.16;;;9.78;69.55
9281;BME280;4679;47.966;7.958;2023-04-20T12:43:15;96573.47;;;9.77;69.61
9281;BME280;4679;47.966;7.958;2023-04-20T12:45:17;96578.19;;;10.02;69.09
9281;BME280;4679;47.966;7.958;2023-04-20T12:47:20;96572.28;;;10.21;69.65
9281;BME280;4679;47.966;7.958;2023-04-20T12:49:22;96574.19;;;10.31;69.04
9281;BME280;4679;47.966;7.958;2023-04-20T12:51:24;96572.84;;;10.29;69.12
9281;BME280;4679;47.966;7.958;2023-04-20T12:53:26;96565.19;;;10.32;68.52
9281;BME280;4679;47.966;7.958;2023-04-20T12:55:28;96563.38;;;10.38;69.35
9281;BME280;4679;47.966;7.958;2023-04-20T12:57:30;96562.28;;;10.34;68.76
9281;BME280;4679;47.966;7.958;2023-04-20T12:59:31;96564.88;;;10.29;69.12
9281;BME280;4679;47.966;7.958;2023-04-20T13:01:33;96568.38;;;10.34;69.23
9281;BME280;4679;47.966;7.958;2023-04-20T13:03:36;96571.13;;;10.49;68.40
9281;BME280;4679;47.966;7.958;2023-04-20T13:05:38;96570.84;;;10.46;68.48
9281;BME280;4679;47.966;7.958;2023-04-20T13:07:40;96564.16;;;10.38;68.56
9281;BME280;4679;47.966;7.958;2023-04-20T13:09:41;96560.63;;;10.28;68.54
9281;BME280;4679;47.966;7.958;2023-04-20T13:11:43;96562.06;;;10.45;67.65
9281;BME280;4679;47.966;7.958;2023-04-20T13:13:45;96562.13;;;10.50;68.66
9281;BME280;4679;47.966;7.958;2023-04-20T13:15:47;96571.69;;;10.56;68.09
9281;BME280;4679;47.966;7.958;2023-04-20T13:17:49;96570.63;;;10.57;67.67
9281;BME280;4679;47.966;7.958;2023-04-20T13:19:52;96573.03;;;10.59;67.80
9281;BME280;4679;47.966;7.958;2023-04-20T13:21:54;96567.44;;;10.55;67.90
9281;BME280;4679;47.966;7.958;2023-04-20T13:23:55;96568.47;;;10.49;68.05
9281;BME280;4679;47.966;7.958;2023-04-20T13:25:57;96566.63;;;10.50;68.50
9281;BME280;4679;47.966;7.958;2023-04-20T13:28:02;96564.03;;;10.60;67.42
9281;BME280;4679;47.966;7.958;2023-04-20T13:30:05;96560.31;;;10.61;68.04
9281;BME280;4679;47.966;7.958;2023-04-20T13:32:08;96555.75;;;10.51;68.05
9281;BME280;4679;47.966;7.958;2023-04-20T13:34:10;96553.28;;;10.40;67.39
9281;BME280;4679;47.966;7.958;2023-04-20T13:36:13;96549.22;;;10.22;68.55
9281;BME280;4679;47.966;7.958;2023-04-20T13:38:15;96552.38;;;10.19;67.51
9281;BME280;4679;47.966;7.958;2023-04-20T13:40:17;96553.34;;;10.13;68.42
9281;BME280;4679;47.966;7.958;2023-04-20T13:42:19;96549.88;;;10.07;67.36
9281;BME280;4679;47.966;7.958;2023-04-20T13:44:20;96546.41;;;10.07;67.77
9281;BME280;4679;47.966;7.958;2023-04-20T13:46:22;96547.78;;;10.14;67.79
9281;BME280;4679;47.966;7.958;2023-04-20T13:48:24;96548.16;;;10.23;67.91
9281;BME280;4679;47.966;7.958;2023-04-20T13:50:26;96549.72;;;10.24;67.62
9281;BME280;4679;47.966;7.958;2023-04-20T13:52:29;96547.63;;;10.26;67.02
9281;BME280;4679;47.966;7.958;2023-04-20T13:54:31;96547.38;;;10.28;66.75
9281;BME280;4679;47.966;7.958;2023-04-20T13:56:33;96548.91;;;10.18;66.97
9281;BME280;4679;47.966;7.958;2023-04-20T13:58:35;96543.38;;;10.25;67.40
9281;BME280;4679;47.966;7.958;2023-04-20T14:00:36;96546.88;;;10.31;66.60
9281;BME280;4679;47.966;7.958;2023-04-20T14:02:38;96535.97;;;10.22;67.43
9281;BME280;4679;47.966;7.958;2023-04-20T14:04:40;96535.66;;;10.18;67.70
9281;BME280;4679;47.966;7.958;2023-04-20T14:06:41;96545.28;;;10.30;66.48
9281;BME280;4679;47.966;7.958;2023-04-20T14:08:44;96554.03;;;10.30;67.09
9281;BME280;4679;47.966;7.958;2023-04-20T14:10:46;96549.53;;;10.31;66.16
9281;BME280;4679;47.966;7.958;2023-04-20T14:12:48;96560.69;;;10.33;67.27
9281;BME280;4679;47.966;7.958;2023-04-20T14:14:50;96559.06;;;10.32;67.15
9281;BME280;4679;47.966;7.958;2023-04-20T14:16:51;96558.81;;;10.33;67.30
9281;BME280;4679;47.966;7.958;2023-04-20T14:18:53;96571.28;;;10.33;67.04
9281;BME280;4679;47.966;7.958;2023-04-20T14:20:55;96562.22;;;10.29;66.89
9281;BME280;4679;47.966;7.958;2023-04-20T14:22:56;96569.09;;;10.25;67.09
9281;BME280;4679;47.966;7.958;2023-04-20T14:24:59;96570.19;;;10.29;66.63
9281;BME280;4679;47.966;7.958;2023-04-20T14:27:01;96567.84;;;10.32;65.92
9281;BME280;4679;47.966;7.958;2023-04-20T14:29:03;96561.44;;;10.28;67.01
9281;BME280;4679;47.966;7.958;2023-04-20T14:31:05;96566.44;;;10.25;66.31
9281;BME280;4679;47.966;7.958;2023-04-20T14:33:06;96556.63;;;10.20;66.47
9281;BME280;4679;47.966;7.958;2023-04-20T14:35:08;96553.63;;;10.16;66.45
9281;BME280;4679;47.966;7.958;2023-04-20T14:37:10;96558.94;;;10.16;66.12
9281;BME280;4679;47.966;7.958;2023-04-20T14:39:11;96562.16;;;10.18;67.01
9281;BME280;4679;47.966;7.958;2023-04-20T14:41:15;96567.22;;;10.20;65.92
9281;BME280;4679;47.966;7.958;2023-04-20T14:43:17;96570.41;;;10.22;66.00
9281;BME280;4679;47.966;7.958;2023-04-20T14:45:19;96572.53;;;10.20;66.49
9281;BME280;4679;47.966;7.958;2023-04-20T14:47:20;96568.50;;;10.17;66.78
9281;BME280;4679;47.966;7.958;2023-04-20T14:49:22;96575.44;;;10.18;65.92
9281;BME280;4679;47.966;7.958;2023-04-20T14:51:24;96576.16;;;10.14;66.13
9281;BME280;4679;47.966;7.958;2023-04-20T14:53:26;96579.78;;;10.03;66.49
9281;BME280;4679;47.966;7.958;2023-04-20T14:55:28;96569.94;;;9.98;66.09
9281;BME280;4679;47.966;7.958;2023-04-20T14:57:31;96576.03;;;9.99;66.52
9281;BME280;4679;47.966;7.958;2023-04-20T14:59:33;96568.56;;;9.96;66.68
9281;BME280;4679;47.966;7.958;2023-04-20T15:01:36;96565.69;;;9.97;66.17
9281;BME280;4679;47.966;7.958;2023-04-20T15:03:39;96560.63;;;9.96;66.13
9281;BME280;4679;47.966;7.958;2023-04-20T15:05:40;96572.53;;;9.93;66.22
9281;BME280;4679;47.966;7.958;2023-04-20T15:07:42;96570.16;;;9.92;66.16
9281;BME280;4679;47.966;7.958;2023-04-20T15:09:45;96571.22;;;9.91;66.37
9281;BME280;4679;47.966;7.958;2023-04-20T15:11:46;96565.09;;;9.90;65.37
9281;BME280;4679;47.966;7.958;2023-04-20T15:13:49;96561.41;;;9.91;66.13
9281;BME280;4679;47.966;7.958;2023-04-20T15:15:51;96550.00;;;9.91;66.20
9281;BME280;4679;47.966;7.958;2023-04-20T15:17:53;96547.34;;;9.91;65.88
9281;BME280;4679;47.966;7.958;2023-04-20T15:19:55;96565.13;;;9.95;65.50
9281;BME280;4679;47.966;7.958;2023-04-20T15:21:56;96569.34;;;9.91;66.07
9281;BME280;4679;47.966;7.958;2023-04-20T15:23:58;96561.09;;;9.87;65.58
9281;BME280;4679;47.966;7.958;2023-04-20T15:25:59;96556.00;;;9.81;65.83
9281;BME280;4679;47.966;7.958;2023-04-20T15:28:01;96553.09;;;9.77;65.43
9281;BME280;4679;47.966;7.958;2023-04-20T15:30:05;96547.66;;;9.67;65.84
9281;BME280;4679;47.966;7.958;2023-04-20T15:32:07;96551.88;;;9.63;65.68
9281;BME280;4679;47.966;7.958;2023-04-20T15:34:09;96553.22;;;9.66;65.84
9281;BME280;4679;47.966;7.958;2023-04-20T15:36:16;96553.03;;;9.72;65.97
9281;BME280;4679;47.966;7.958;2023-04-20T15:38:18;96556.50;;;9.78;65.47
9281;BME280;4679;47.966;7.958;2023-04-20T15:40:20;96568.44;;;9.80;65.32
9281;BME280;4679;47.966;7.958;2023-04-20T15:42:22;96568.69;;;9.79;65.71
9281;BME280;4679;47.966;7.958;2023-04-20T15:44:23;96570.34;;;9.85;65.27
9281;BME280;4679;47.966;7.958;2023-04-20T15:46:26;96580.75;;;9.92;64.71
9281;BME280;4679;47.966;7.958;2023-04-20T15:48:28;96578.13;;;9.97;65.14
9281;BME280;4679;47.966;7.958;2023-04-20T15:50:30;96577.06;;;9.98;65.35
9281;BME280;4679;47.966;7.958;2023-04-20T15:52:32;96582.38;;;9.98;64.63
9281;BME280;4679;47.966;7.958;2023-04-20T15:54:33;96581.56;;;9.97;65.16
9281;BME280;4679;47.966;7.958;2023-04-20T15:56:35;96583.66;;;9.90;65.39
9281;BME280;4679;47.966;7.958;2023-04-20T15:58:37;96575.91;;;9.83;65.60
9281;BME280;4679;47.966;7.958;2023-04-20T16:00:39;96576.94;;;9.82;64.87
9281;BME280;4679;47.966;7.958;2023-04-20T16:02:42;96572.44;;;9.83;65.28
9281;BME280;4679;47.966;7.958;2023-04-20T16:04:44;96575.66;;;9.85;65.47
9281;BME280;4679;47.966;7.958;2023-04-20T16:06:46;96577.31;;;9.96;65.16
9281;BME280;4679;47.966;7.958;2023-04-20T16:08:48;96582.19;;;10.09;64.27
9281;BME280;4679;47.966;7.958;2023-04-20T16:10:52;96588.44;;;10.20;63.80
9281;BME280;4679;47.966;7.958;2023-04-20T16:12:54;96587.41;;;10.26;64.31
9281;BME280;4679;47.966;7.958;2023-04-20T16:14:56;96578.47;;;10.37;64.64
9281;BME280;4679;47.966;7.958;2023-04-20T16:16:59;96583.00;;;10.42;64.63
9281;BME280;4679;47.966;7.958;2023-04-20T16:19:03;96585.91;;;10.40;63.30
9281;BME280;4679;47.966;7.958;2023-04-20T16:21:05;96587.81;;;10.45;63.47
9281;BME280;4679;47.966;7.958;2023-04-20T16:23:06;96590.59;;;10.28;63.84
9281;BME280;4679;47.966;7.958;2023-04-20T16:25:08;96587.84;;;10.18;64.48
9281;BME280;4679;47.966;7.958;2023-04-20T16:27:11;96588.91;;;10.17;64.04
9281;BME280;4679;47.966;7.958;2023-04-20T16:29:13;96594.00;;;10.23;64.72
9281;BME280;4679;47.966;7.958;2023-04-20T16:31:15;96589.59;;;10.34;63.27
9281;BME280;4679;47.966;7.958;2023-04-20T16:33:16;96590.16;;;10.41;62.99
9281;BME280;4679;47.966;7.958;2023-04-20T16:35:20;96592.00;;;10.36;62.96
9281;BME280;4679;47.966;7.958;2023-04-20T16:37:21;96582.63;;;10.23;64.20